Lehmann Sound — V2EM3 — position and weather

sailwx.info

Track history (hours):
 
Tides and Currents Weather Stations Pressure Air Temp Water Temp Dewpoint Dewpoint Depression Visibility Wind Speed Wind Dir Waves Ship Positions

Lehmann Sound

Last reported at 2016-Jul-27 22:33 UTC. Time now 2016-Jul-27 23:03 UTC.
Position N 50°33' W 000°04'.

Length 90 m; draft 4.3 m.

Type: Cargo ship. MMSI: 305476000.

Date/timePositionNaut miles runAvg speedWind from/ knotsBaromVisibWave heightAir tempDewpointWater temp
2016-Jul-27 22:33N 50°33' W 000°04'9 9.0
2016-Jul-27 21:32N 50°35' E 000°10'41 8.0
2016-Jul-27 16:25N 50°54' E 001°07'6 6.9
2016-Jul-27 15:33N 50°58' E 001°14'7 7.3
2016-Jul-27 14:33N 51°02' E 001°24'9 8.8
2016-Jul-27 13:34N 51°07' E 001°35'9 9.3
2016-Jul-27 12:34N 51°14' E 001°45'9 9.0
2016-Jul-27 11:33N 51°22' E 001°50'7 7.5
2016-Jul-27 10:33N 51°30' E 001°51'7 7.3
2016-Jul-27 09:33N 51°36' E 001°46'7 6.9
2016-Jul-27 08:33N 51°43' E 001°44'7 6.6
2016-Jul-27 07:33N 51°50' E 001°42'8 7.9
2016-Jul-27 06:34N 51°54' E 001°31'8 7.9
2016-Jul-27 05:33N 51°56' E 001°19'7 7.0
2016-Jul-27 04:34N 52°01' E 001°11'1 1.4
2016-Jul-27 03:33N 52°02' E 001°09'0 0.0
2016-Jul-27 02:33N 52°02' E 001°09'0 0.0
2016-Jul-27 01:33N 52°02' E 001°09'0 0.0
2016-Jul-27 00:30N 52°02' E 001°09'0 0.0
2016-Jul-26 23:30N 52°02' E 001°09'0 0.0
2016-Jul-26 22:30N 52°02' E 001°09'0 0.0
2016-Jul-26 21:18N 52°02' E 001°09'0 0.0
2016-Jul-26 20:30N 52°02' E 001°09'0 0.0
2016-Jul-26 19:33N 52°02' E 001°09'0 0.0
2016-Jul-26 18:33N 52°02' E 001°09'0 0.0
2016-Jul-26 17:30N 52°02' E 001°09'0 0.0
2016-Jul-26 16:30N 52°02' E 001°09'0 0.0
2016-Jul-26 15:33N 52°02' E 001°09'0 0.0
2016-Jul-26 14:27N 52°02' E 001°09'0 0.0
2016-Jul-26 13:33N 52°02' E 001°09'0 0.0
2016-Jul-26 12:33N 52°02' E 001°09'0 0.0
2016-Jul-26 11:33N 52°02' E 001°09'0 0.0
2016-Jul-26 10:30N 52°02' E 001°09'0 0.0
2016-Jul-26 09:30N 52°02' E 001°09'0 0.0
2016-Jul-26 08:30N 52°02' E 001°09'0 0.0
2016-Jul-26 07:33N 52°02' E 001°09'0 0.0
2016-Jul-26 06:33N 52°02' E 001°09'0 0.0
2016-Jul-26 05:33N 52°02' E 001°09'0 0.0
2016-Jul-26 04:29N 52°02' E 001°09'0 0.0
2016-Jul-26 03:32N 52°02' E 001°09'0 0.0
2016-Jul-26 02:29N 52°02' E 001°09'0 0.0
2016-Jul-26 01:32N 52°02' E 001°09'0 0.0
2016-Jul-26 00:32N 52°02' E 001°09'0 0.0
2016-Jul-25 23:32N 52°02' E 001°09'0 0.0
2016-Jul-25 22:32N 52°02' E 001°09'0 0.0
2016-Jul-25 21:32N 52°02' E 001°09'0 0.0
2016-Jul-25 20:32N 52°02' E 001°09'0 0.0
2016-Jul-25 19:32N 52°02' E 001°09'0 0.0
2016-Jul-25 18:32N 52°02' E 001°09'0 0.0
2016-Jul-25 17:29N 52°02' E 001°09'0 0.0
2016-Jul-25 16:32N 52°02' E 001°09'0 0.0
2016-Jul-25 15:32N 52°02' E 001°09'0 0.0
2016-Jul-25 14:26N 52°02' E 001°09'0 0.0
2016-Jul-25 13:29N 52°02' E 001°09'0 0.0
2016-Jul-25 12:32N 52°02' E 001°09'0 0.0
2016-Jul-25 11:29N 52°02' E 001°09'0 0.0
2016-Jul-25 10:29N 52°02' E 001°09'0 0.0
2016-Jul-25 09:32N 52°02' E 001°09'0 0.0
2016-Jul-25 08:32N 52°02' E 001°09'0 0.0
2016-Jul-25 07:32N 52°02' E 001°09'0 0.0
2016-Jul-25 06:32N 52°02' E 001°09'0 0.0
2016-Jul-25 05:29N 52°02' E 001°09'0 0.0
2016-Jul-25 04:32N 52°02' E 001°09'0 0.0
2016-Jul-25 03:32N 52°02' E 001°09'0 0.0
2016-Jul-25 02:32N 52°02' E 001°09'0 0.0
2016-Jul-25 01:32N 52°02' E 001°09'0 0.0
2016-Jul-25 00:29N 52°02' E 001°09'0 0.0
2016-Jul-24 23:29N 52°02' E 001°09'0 0.0
2016-Jul-24 22:17N 52°02' E 001°09'0 0.0
2016-Jul-24 21:29N 52°02' E 001°09'0 0.0
2016-Jul-24 20:29N 52°02' E 001°09'0 0.0
2016-Jul-24 19:29N 52°02' E 001°09'0 0.0
2016-Jul-24 18:29N 52°02' E 001°09'0 0.0
2016-Jul-24 17:31N 52°02' E 001°09'0 0.0
2016-Jul-24 16:31N 52°02' E 001°09'0 0.0
2016-Jul-24 15:31N 52°02' E 001°09'0 0.0
2016-Jul-24 14:31N 52°02' E 001°09'0 0.0
2016-Jul-24 13:28N 52°02' E 001°09'0 0.0
2016-Jul-24 12:31N 52°02' E 001°09'0 0.0
2016-Jul-24 11:28N 52°02' E 001°09'0 0.0
2016-Jul-24 10:28N 52°02' E 001°09'0 0.0
2016-Jul-24 09:19N 52°02' E 001°09'0 0.0
2016-Jul-24 08:28N 52°02' E 001°09'0 0.0
2016-Jul-24 06:31N 52°02' E 001°09'0 0.0
2016-Jul-24 05:31N 52°02' E 001°09'0 0.0
2016-Jul-24 04:31N 52°02' E 001°09'0 0.0
2016-Jul-24 03:31N 52°02' E 001°09'0 0.0
2016-Jul-24 02:31N 52°02' E 001°09'0 0.0
2016-Jul-24 01:31N 52°02' E 001°09'0 0.0
2016-Jul-24 00:31N 52°02' E 001°09'0 0.0
2016-Jul-23 23:31N 52°02' E 001°09'0 0.0
2016-Jul-23 22:28N 52°02' E 001°09'0 0.0
2016-Jul-23 21:28N 52°02' E 001°09'0 0.0
2016-Jul-23 20:28N 52°02' E 001°09'0 0.0
2016-Jul-23 19:13N 52°02' E 001°09'0 0.0
2016-Jul-23 18:10N 52°02' E 001°09'0 0.0
2016-Jul-23 16:22N 52°02' E 001°09'0 0.0
2016-Jul-23 15:22N 52°02' E 001°09'0 0.0
2016-Jul-23 14:25N 52°02' E 001°09'0 0.0
2016-Jul-23 13:31N 52°02' E 001°09'0 0.0
2016-Jul-23 12:19N 52°02' E 001°09'0 0.0
2016-Jul-23 11:28N 52°02' E 001°09'0 0.0
2016-Jul-23 10:28N 52°02' E 001°09'0 0.0
2016-Jul-23 09:25N 52°02' E 001°09'0 0.0
2016-Jul-23 08:31N 52°02' E 001°09'0 0.0
2016-Jul-23 07:34N 52°02' E 001°09'0 0.0
2016-Jul-23 06:34N 52°02' E 001°09'0 0.0
2016-Jul-23 04:33N 52°02' E 001°09'0 0.0
2016-Jul-23 03:33N 52°02' E 001°09'0 0.0
2016-Jul-23 02:33N 52°02' E 001°09'0 0.0
2016-Jul-23 01:33N 52°02' E 001°09'0 0.0
2016-Jul-23 00:33N 52°02' E 001°09'0 0.0
2016-Jul-22 23:33N 52°02' E 001°09'0 0.0
2016-Jul-22 22:33N 52°02' E 001°09'0 0.0
2016-Jul-22 21:33N 52°02' E 001°09'0 0.0
2016-Jul-22 20:30N 52°02' E 001°09'0 0.0
2016-Jul-22 19:33N 52°02' E 001°09'0 0.0
2016-Jul-22 18:15N 52°02' E 001°09'0 0.0
2016-Jul-22 17:33N 52°02' E 001°09'0 0.0
2016-Jul-22 16:09N 52°02' E 001°09'0 0.0
2016-Jul-22 15:15N 52°02' E 001°09'0 0.0
2016-Jul-22 13:21N 52°02' E 001°09'0 0.0
2016-Jul-22 12:33N 52°02' E 001°09'0 0.0
2016-Jul-22 11:30N 52°02' E 001°09'0 0.0
2016-Jul-22 10:33N 52°02' E 001°09'4 4.3
2016-Jul-22 09:33N 51°60' E 001°15'7 6.6
2016-Jul-22 08:33N 51°56' E 001°24'8 7.7
2016-Jul-22 07:33N 51°59' E 001°35'15 7.3
2016-Jul-22 05:33N 52°03' E 001°58'8 7.7
2016-Jul-22 04:33N 51°60' E 002°10'7 6.9
2016-Jul-22 03:33N 51°57' E 002°20'5 5.2
2016-Jul-22 02:33N 51°54' E 002°27'6 6.0
2016-Jul-22 01:33N 51°50' E 002°34'6 5.7
2016-Jul-22 00:33N 51°44' E 002°32'7 6.7
2016-Jul-21 23:33N 51°39' E 002°26'6 6.1
2016-Jul-21 22:33N 51°34' E 002°21'7 6.8
2016-Jul-21 21:33N 51°28' E 002°14'7 6.9
2016-Jul-21 20:33N 51°22' E 002°09'7 7.3
2016-Jul-21 19:33N 51°16' E 002°04'7 7.3
2016-Jul-21 18:33N 51°11' E 001°55'7 7.4
2016-Jul-21 17:33N 51°07' E 001°45'8 7.5
2016-Jul-21 16:33N 51°02' E 001°37'9 8.6
2016-Jul-21 15:33N 50°55' E 001°28'9 9.3
2016-Jul-21 14:33N 50°47' E 001°23'48 9.3
2016-Jul-21 09:25N 50°22' E 000°19'910.7
2016-Jul-21 08:33N 50°20' E 000°05'12 9.9
2016-Jul-21 07:23N 50°16' W 000°12'31 8.1
2016-Jul-21 03:33N 50°08' W 000°59'7 6.0
2016-Jul-21 02:24N 50°07' W 001°09'5 6.0
2016-Jul-21 01:31N 50°05' W 001°17'7 6.9
2016-Jul-21 00:33N 50°03' W 001°27'9 8.6
2016-Jul-20 23:29N 50°01' W 001°41'3311.2
2016-Jul-20 20:31N 49°52' W 002°31'1111.7
2016-Jul-20 19:33N 49°49' W 002°48'1111.2
2016-Jul-20 18:33N 49°44' W 003°03'1110.8
2016-Jul-20 17:31N 49°38' W 003°18'1010.4
2016-Jul-20 16:33N 49°33' W 003°31'10 9.7
2016-Jul-20 15:32N 49°28' W 003°44'62 7.8
2016-Jul-20 07:33N 48°57' W 005°06'29 8.9
2016-Jul-20 04:18N 48°38' W 005°40'86 8.7
2016-Jul-19 18:24N 47°22' W 006°41'8 9.3
2016-Jul-19 17:33N 47°15' W 006°46'9 9.0
2016-Jul-19 16:34N 47°07' W 006°52'45 9.0
2016-Jul-19 11:33N 46°27' W 007°22'  
Track history (hours):
 
Tides and Currents Weather Stations Pressure Air Temp Water Temp Dewpoint Dewpoint Depression Visibility Wind Speed Wind Dir Waves Ship Positions

Lehmann Sound

Last reported at 2016-Jul-27 22:33 UTC. Time now 2016-Jul-27 23:03 UTC.
Position N 50°33' W 000°04'.

Length 90 m; draft 4.3 m.

Type: Cargo ship. MMSI: 305476000.

Date/timePositionNaut miles runAvg speedWind from/ knotsBaromVisibWave heightAir tempDewpointWater temp
2016-Jul-27 22:33N 50°33' W 000°04'9 9.0
2016-Jul-27 21:32N 50°35' E 000°10'41 8.0
2016-Jul-27 16:25N 50°54' E 001°07'6 6.9
2016-Jul-27 15:33N 50°58' E 001°14'7 7.3
2016-Jul-27 14:33N 51°02' E 001°24'9 8.8
2016-Jul-27 13:34N 51°07' E 001°35'9 9.3
2016-Jul-27 12:34N 51°14' E 001°45'9 9.0
2016-Jul-27 11:33N 51°22' E 001°50'7 7.5
2016-Jul-27 10:33N 51°30' E 001°51'7 7.3
2016-Jul-27 09:33N 51°36' E 001°46'7 6.9
2016-Jul-27 08:33N 51°43' E 001°44'7 6.6
2016-Jul-27 07:33N 51°50' E 001°42'8 7.9
2016-Jul-27 06:34N 51°54' E 001°31'8 7.9
2016-Jul-27 05:33N 51°56' E 001°19'7 7.0
2016-Jul-27 04:34N 52°01' E 001°11'1 1.4
2016-Jul-27 03:33N 52°02' E 001°09'0 0.0
2016-Jul-27 02:33N 52°02' E 001°09'0 0.0
2016-Jul-27 01:33N 52°02' E 001°09'0 0.0
2016-Jul-27 00:30N 52°02' E 001°09'0 0.0
2016-Jul-26 23:30N 52°02' E 001°09'0 0.0
2016-Jul-26 22:30N 52°02' E 001°09'0 0.0
2016-Jul-26 21:18N 52°02' E 001°09'0 0.0
2016-Jul-26 20:30N 52°02' E 001°09'0 0.0
2016-Jul-26 19:33N 52°02' E 001°09'0 0.0
2016-Jul-26 18:33N 52°02' E 001°09'0 0.0
2016-Jul-26 17:30N 52°02' E 001°09'0 0.0
2016-Jul-26 16:30N 52°02' E 001°09'0 0.0
2016-Jul-26 15:33N 52°02' E 001°09'0 0.0
2016-Jul-26 14:27N 52°02' E 001°09'0 0.0
2016-Jul-26 13:33N 52°02' E 001°09'0 0.0
2016-Jul-26 12:33N 52°02' E 001°09'0 0.0
2016-Jul-26 11:33N 52°02' E 001°09'0 0.0
2016-Jul-26 10:30N 52°02' E 001°09'0 0.0
2016-Jul-26 09:30N 52°02' E 001°09'0 0.0
2016-Jul-26 08:30N 52°02' E 001°09'0 0.0
2016-Jul-26 07:33N 52°02' E 001°09'0 0.0
2016-Jul-26 06:33N 52°02' E 001°09'0 0.0
2016-Jul-26 05:33N 52°02' E 001°09'0 0.0
2016-Jul-26 04:29N 52°02' E 001°09'0 0.0
2016-Jul-26 03:32N 52°02' E 001°09'0 0.0
2016-Jul-26 02:29N 52°02' E 001°09'0 0.0
2016-Jul-26 01:32N 52°02' E 001°09'0 0.0
2016-Jul-26 00:32N 52°02' E 001°09'0 0.0
2016-Jul-25 23:32N 52°02' E 001°09'0 0.0
2016-Jul-25 22:32N 52°02' E 001°09'0 0.0
2016-Jul-25 21:32N 52°02' E 001°09'0 0.0
2016-Jul-25 20:32N 52°02' E 001°09'0 0.0
2016-Jul-25 19:32N 52°02' E 001°09'0 0.0
2016-Jul-25 18:32N 52°02' E 001°09'0 0.0
2016-Jul-25 17:29N 52°02' E 001°09'0 0.0
2016-Jul-25 16:32N 52°02' E 001°09'0 0.0
2016-Jul-25 15:32N 52°02' E 001°09'0 0.0
2016-Jul-25 14:26N 52°02' E 001°09'0 0.0
2016-Jul-25 13:29N 52°02' E 001°09'0 0.0
2016-Jul-25 12:32N 52°02' E 001°09'0 0.0
2016-Jul-25 11:29N 52°02' E 001°09'0 0.0
2016-Jul-25 10:29N 52°02' E 001°09'0 0.0
2016-Jul-25 09:32N 52°02' E 001°09'0 0.0
2016-Jul-25 08:32N 52°02' E 001°09'0 0.0
2016-Jul-25 07:32N 52°02' E 001°09'0 0.0
2016-Jul-25 06:32N 52°02' E 001°09'0 0.0
2016-Jul-25 05:29N 52°02' E 001°09'0 0.0
2016-Jul-25 04:32N 52°02' E 001°09'0 0.0
2016-Jul-25 03:32N 52°02' E 001°09'0 0.0
2016-Jul-25 02:32N 52°02' E 001°09'0 0.0
2016-Jul-25 01:32N 52°02' E 001°09'0 0.0
2016-Jul-25 00:29N 52°02' E 001°09'0 0.0
2016-Jul-24 23:29N 52°02' E 001°09'0 0.0
2016-Jul-24 22:17N 52°02' E 001°09'0 0.0
2016-Jul-24 21:29N 52°02' E 001°09'0 0.0
2016-Jul-24 20:29N 52°02' E 001°09'0 0.0
2016-Jul-24 19:29N 52°02' E 001°09'0 0.0
2016-Jul-24 18:29N 52°02' E 001°09'0 0.0
2016-Jul-24 17:31N 52°02' E 001°09'0 0.0
2016-Jul-24 16:31N 52°02' E 001°09'0 0.0
2016-Jul-24 15:31N 52°02' E 001°09'0 0.0
2016-Jul-24 14:31N 52°02' E 001°09'0 0.0
2016-Jul-24 13:28N 52°02' E 001°09'0 0.0
2016-Jul-24 12:31N 52°02' E 001°09'0 0.0
2016-Jul-24 11:28N 52°02' E 001°09'0 0.0
2016-Jul-24 10:28N 52°02' E 001°09'0 0.0
2016-Jul-24 09:19N 52°02' E 001°09'0 0.0
2016-Jul-24 08:28N 52°02' E 001°09'0 0.0
2016-Jul-24 06:31N 52°02' E 001°09'0 0.0
2016-Jul-24 05:31N 52°02' E 001°09'0 0.0
2016-Jul-24 04:31N 52°02' E 001°09'0 0.0
2016-Jul-24 03:31N 52°02' E 001°09'0 0.0
2016-Jul-24 02:31N 52°02' E 001°09'0 0.0
2016-Jul-24 01:31N 52°02' E 001°09'0 0.0
2016-Jul-24 00:31N 52°02' E 001°09'0 0.0
2016-Jul-23 23:31N 52°02' E 001°09'0 0.0
2016-Jul-23 22:28N 52°02' E 001°09'0 0.0
2016-Jul-23 21:28N 52°02' E 001°09'0 0.0
2016-Jul-23 20:28N 52°02' E 001°09'0 0.0
2016-Jul-23 19:13N 52°02' E 001°09'0 0.0
2016-Jul-23 18:10N 52°02' E 001°09'0 0.0
2016-Jul-23 16:22N 52°02' E 001°09'0 0.0
2016-Jul-23 15:22N 52°02' E 001°09'0 0.0
2016-Jul-23 14:25N 52°02' E 001°09'0 0.0
2016-Jul-23 13:31N 52°02' E 001°09'0 0.0
2016-Jul-23 12:19N 52°02' E 001°09'0 0.0
2016-Jul-23 11:28N 52°02' E 001°09'0 0.0
2016-Jul-23 10:28N 52°02' E 001°09'0 0.0
2016-Jul-23 09:25N 52°02' E 001°09'0 0.0
2016-Jul-23 08:31N 52°02' E 001°09'0 0.0
2016-Jul-23 07:34N 52°02' E 001°09'0 0.0
2016-Jul-23 06:34N 52°02' E 001°09'0 0.0
2016-Jul-23 04:33N 52°02' E 001°09'0 0.0
2016-Jul-23 03:33N 52°02' E 001°09'0 0.0
2016-Jul-23 02:33N 52°02' E 001°09'0 0.0
2016-Jul-23 01:33N 52°02' E 001°09'0 0.0
2016-Jul-23 00:33N 52°02' E 001°09'0 0.0
2016-Jul-22 23:33N 52°02' E 001°09'0 0.0
2016-Jul-22 22:33N 52°02' E 001°09'0 0.0
2016-Jul-22 21:33N 52°02' E 001°09'0 0.0
2016-Jul-22 20:30N 52°02' E 001°09'0 0.0
2016-Jul-22 19:33N 52°02' E 001°09'0 0.0
2016-Jul-22 18:15N 52°02' E 001°09'0 0.0
2016-Jul-22 17:33N 52°02' E 001°09'0 0.0
2016-Jul-22 16:09N 52°02' E 001°09'0 0.0
2016-Jul-22 15:15N 52°02' E 001°09'0 0.0
2016-Jul-22 13:21N 52°02' E 001°09'0 0.0
2016-Jul-22 12:33N 52°02' E 001°09'0 0.0
2016-Jul-22 11:30N 52°02' E 001°09'0 0.0
2016-Jul-22 10:33N 52°02' E 001°09'4 4.3
2016-Jul-22 09:33N 51°60' E 001°15'7 6.6
2016-Jul-22 08:33N 51°56' E 001°24'8 7.7
2016-Jul-22 07:33N 51°59' E 001°35'15 7.3
2016-Jul-22 05:33N 52°03' E 001°58'8 7.7
2016-Jul-22 04:33N 51°60' E 002°10'7 6.9
2016-Jul-22 03:33N 51°57' E 002°20'5 5.2
2016-Jul-22 02:33N 51°54' E 002°27'6 6.0
2016-Jul-22 01:33N 51°50' E 002°34'6 5.7
2016-Jul-22 00:33N 51°44' E 002°32'7 6.7
2016-Jul-21 23:33N 51°39' E 002°26'6 6.1
2016-Jul-21 22:33N 51°34' E 002°21'7 6.8
2016-Jul-21 21:33N 51°28' E 002°14'7 6.9
2016-Jul-21 20:33N 51°22' E 002°09'7 7.3
2016-Jul-21 19:33N 51°16' E 002°04'7 7.3
2016-Jul-21 18:33N 51°11' E 001°55'7 7.4
2016-Jul-21 17:33N 51°07' E 001°45'8 7.5
2016-Jul-21 16:33N 51°02' E 001°37'9 8.6
2016-Jul-21 15:33N 50°55' E 001°28'9 9.3
2016-Jul-21 14:33N 50°47' E 001°23'48 9.3
2016-Jul-21 09:25N 50°22' E 000°19'910.7
2016-Jul-21 08:33N 50°20' E 000°05'12 9.9
2016-Jul-21 07:23N 50°16' W 000°12'31 8.1
2016-Jul-21 03:33N 50°08' W 000°59'7 6.0
2016-Jul-21 02:24N 50°07' W 001°09'5 6.0
2016-Jul-21 01:31N 50°05' W 001°17'7 6.9
2016-Jul-21 00:33N 50°03' W 001°27'9 8.6
2016-Jul-20 23:29N 50°01' W 001°41'3311.2
2016-Jul-20 20:31N 49°52' W 002°31'1111.7
2016-Jul-20 19:33N 49°49' W 002°48'1111.2
2016-Jul-20 18:33N 49°44' W 003°03'1110.8
2016-Jul-20 17:31N 49°38' W 003°18'1010.4
2016-Jul-20 16:33N 49°33' W 003°31'10 9.7
2016-Jul-20 15:32N 49°28' W 003°44'62 7.8
2016-Jul-20 07:33N 48°57' W 005°06'29 8.9
2016-Jul-20 04:18N 48°38' W 005°40'86 8.7
2016-Jul-19 18:24N 47°22' W 006°41'8 9.3
2016-Jul-19 17:33N 47°15' W 006°46'9 9.0
2016-Jul-19 16:34N 47°07' W 006°52'45 9.0
2016-Jul-19 11:33N 46°27' W 007°22'  

Dump ship's entire track history